Time,TemperatureF,DewpointF,PressureIn,WindDirection,WindDirectionDegrees,WindSpeedMPH,WindSpeedGustMPH,Humidity,HourlyPrecipIn,Conditions,Clouds,dailyrainin,SoftwareType,DateUTC
2013-10-12 00:07:00,51.6,51.1,29.76,South,180,0.0,-999.0,98,-99.99,,,0.00,Acu-Link.com,2013-10-12 04:07:00,
2013-10-12 00:23:00,51.3,50.8,29.76,SE,135,0.0,-999.0,98,-99.99,,,0.00,Acu-Link.com,2013-10-12 04:23:00,
2013-10-12 00:38:00,51.1,50.6,29.76,NE,45,0.0,-999.0,98,-99.99,,,0.00,Acu-Link.com,2013-10-12 04:38:00,
2013-10-12 00:53:00,50.9,50.4,29.76,ESE,112,0.0,-999.0,98,-99.99,,,0.00,Acu-Link.com,2013-10-12 04:53:00,
2013-10-12 01:08:00,50.7,50.2,29.76,SW,225,0.0,-999.0,98,-99.99,,,0.00,Acu-Link.com,2013-10-12 05:08:00,
2013-10-12 01:23:00,50.5,50.0,29.76,West,270,0.0,-999.0,98,-99.99,,,0.00,Acu-Link.com,2013-10-12 05:23:00,
2013-10-12 01:38:00,50.5,50.0,29.76,ESE,112,0.0,-999.0,98,-99.99,,,0.00,Acu-Link.com,2013-10-12 05:38:00,
2013-10-12 01:55:00,50.4,49.9,29.76,West,270,0.0,-999.0,98,-99.99,,,0.00,Acu-Link.com,2013-10-12 05:55:00,
2013-10-12 02:10:00,50.7,50.2,29.76,ESE,112,0.0,-999.0,98,-99.99,,,0.00,Acu-Link.com,2013-10-12 06:10:00,
2013-10-12 02:27:00,50.5,50.0,29.76,NNW,337,0.0,-999.0,98,-99.99,,,0.00,Acu-Link.com,2013-10-12 06:27:00,
2013-10-12 02:42:00,50.5,50.0,29.77,ESE,112,0.0,-999.0,98,-99.99,,,0.00,Acu-Link.com,2013-10-12 06:42:00,
2013-10-12 02:57:00,50.4,49.9,29.77,East,90,0.0,-999.0,98,-99.99,,,0.00,Acu-Link.com,2013-10-12 06:57:00,
2013-10-12 03:13:00,50.4,49.9,29.77,SW,225,0.0,-999.0,98,-99.99,,,0.00,Acu-Link.com,2013-10-12 07:13:00,
2013-10-12 03:28:00,50.0,49.5,29.78,ESE,112,0.0,-999.0,98,-99.99,,,0.00,Acu-Link.com,2013-10-12 07:28:00,
2013-10-12 03:44:00,50.2,49.7,29.78,ESE,112,0.0,-999.0,98,-99.99,,,0.00,Acu-Link.com,2013-10-12 07:44:00,
2013-10-12 03:59:00,49.8,49.3,29.79,South,180,0.0,-999.0,98,-99.99,,,0.00,Acu-Link.com,2013-10-12 07:59:00,
2013-10-12 04:15:00,49.5,49.0,29.78,SSE,157,0.0,-999.0,98,-99.99,,,0.00,Acu-Link.com,2013-10-12 08:15:00,
2013-10-12 04:30:00,49.1,48.6,29.78,ESE,112,0.0,-999.0,98,-99.99,,,0.00,Acu-Link.com,2013-10-12 08:30:00,
2013-10-12 04:46:00,48.7,48.2,29.78,SSE,157,0.0,-999.0,98,-99.99,,,0.00,Acu-Link.com,2013-10-12 08:46:00,
2013-10-12 05:01:00,48.7,48.2,29.78,SSE,157,0.0,-999.0,98,-99.99,,,0.00,Acu-Link.com,2013-10-12 09:01:00,
2013-10-12 05:16:00,48.7,48.2,29.78,SE,135,0.0,-999.0,98,-99.99,,,0.00,Acu-Link.com,2013-10-12 09:16:00,
2013-10-12 05:31:00,48.6,48.1,29.78,ESE,112,0.0,-999.0,98,-99.99,,,0.00,Acu-Link.com,2013-10-12 09:31:00,
2013-10-12 05:47:00,48.6,48.1,29.78,East,90,0.0,-999.0,98,-99.99,,,0.00,Acu-Link.com,2013-10-12 09:47:00,
2013-10-12 06:02:00,48.2,47.7,29.80,South,180,0.0,-999.0,98,-99.99,,,0.00,Acu-Link.com,2013-10-12 10:02:00,
2013-10-12 06:17:00,48.2,47.7,29.81,WSW,247,1.1,-999.0,98,-99.99,,,0.00,Acu-Link.com,2013-10-12 10:17:00,
2013-10-12 06:32:00,48.2,47.7,29.81,West,270,0.0,-999.0,98,-99.99,,,0.00,Acu-Link.com,2013-10-12 10:32:00,
2013-10-12 06:47:00,48.4,47.9,29.82,West,270,0.0,-999.0,98,-99.99,,,0.00,Acu-Link.com,2013-10-12 10:47:00,
2013-10-12 07:02:00,48.2,47.7,29.82,South,180,0.0,-999.0,98,-99.99,,,0.00,Acu-Link.com,2013-10-12 11:02:00,
2013-10-12 07:17:00,48.2,47.7,29.82,East,90,0.0,-999.0,98,-99.99,,,0.00,Acu-Link.com,2013-10-12 11:17:00,
2013-10-12 07:32:00,47.8,45.0,29.82,ESE,112,0.0,-999.0,90,-99.99,,,0.00,Acu-Link.com,2013-10-12 11:32:00,
2013-10-12 07:47:00,47.5,44.1,29.82,SSE,157,0.0,-999.0,88,-99.99,,,0.00,Acu-Link.com,2013-10-12 11:47:00,
2013-10-12 08:03:00,47.8,41.3,29.82,ENE,67,0.0,-999.0,78,-99.99,,,0.00,Acu-Link.com,2013-10-12 12:03:00,
2013-10-12 08:18:00,50.4,43.8,29.82,West,270,0.0,-999.0,78,-99.99,,,0.00,Acu-Link.com,2013-10-12 12:18:00,
2013-10-12 08:33:00,53.4,52.6,29.82,ESE,112,0.0,-999.0,97,-99.99,,,0.00,Acu-Link.com,2013-10-12 12:33:00,
2013-10-12 08:48:00,57.2,56.6,29.82,ESE,112,0.0,-999.0,98,-99.99,,,0.00,Acu-Link.com,2013-10-12 12:48:00,
2013-10-12 09:03:00,60.4,59.8,29.82,ESE,112,0.0,-999.0,98,-99.99,,,0.00,Acu-Link.com,2013-10-12 13:03:00,
2013-10-12 09:18:00,62.2,61.3,29.81,NE,45,5.8,-999.0,97,-99.99,,,0.00,Acu-Link.com,2013-10-12 13:18:00,
2013-10-12 09:33:00,62.8,62.2,29.82,NE,45,6.3,-999.0,98,-99.99,,,0.00,Acu-Link.com,2013-10-12 13:33:00,
2013-10-12 09:48:00,64.6,60.3,29.82,East,90,4.7,-999.0,86,-99.99,,,0.00,Acu-Link.com,2013-10-12 13:48:00,
2013-10-12 10:03:00,65.8,61.5,29.82,East,90,4.7,-999.0,86,-99.99,,,0.00,Acu-Link.com,2013-10-12 14:03:00,
2013-10-12 10:19:00,66.0,61.7,29.82,ENE,67,6.3,-999.0,86,-99.99,,,0.00,Acu-Link.com,2013-10-12 14:19:00,
2013-10-12 10:34:00,65.8,61.5,29.82,ENE,67,5.3,-999.0,86,-99.99,,,0.00,Acu-Link.com,2013-10-12 14:34:00,
2013-10-12 10:49:00,65.3,61.3,29.81,East,90,5.8,-999.0,87,-99.99,,,0.00,Acu-Link.com,2013-10-12 14:49:00,
2013-10-12 11:04:00,67.5,62.1,29.81,NNE,22,6.8,-999.0,83,-99.99,,,0.00,Acu-Link.com,2013-10-12 15:04:00,
2013-10-12 11:19:00,68.0,62.3,29.81,East,90,6.3,-999.0,82,-99.99,,,0.00,Acu-Link.com,2013-10-12 15:19:00,
2013-10-12 11:34:00,69.4,63.0,29.81,East,90,4.2,-999.0,80,-99.99,,,0.00,Acu-Link.com,2013-10-12 15:34:00,
2013-10-12 11:50:00,72.0,63.6,29.81,NNE,22,3.7,-999.0,75,-99.99,,,0.00,Acu-Link.com,2013-10-12 15:50:00,
2013-10-12 12:05:00,73.8,63.4,29.81,East,90,5.3,-999.0,70,-99.99,,,0.00,Acu-Link.com,2013-10-12 16:05:00,
2013-10-12 12:20:00,74.8,63.5,29.81,NE,45,3.7,-999.0,68,-99.99,,,0.00,Acu-Link.com,2013-10-12 16:20:00,
2013-10-12 12:35:00,76.8,64.6,29.80,East,90,2.7,-999.0,66,-99.99,,,0.00,Acu-Link.com,2013-10-12 16:35:00,
2013-10-12 12:50:00,76.3,64.9,29.80,East,90,3.2,-999.0,68,-99.99,,,0.00,Acu-Link.com,2013-10-12 16:50:00,
2013-10-12 13:05:00,76.8,65.0,29.81,ESE,112,4.2,-999.0,67,-99.99,,,0.00,Acu-Link.com,2013-10-12 17:05:00,
2013-10-12 13:20:00,77.7,64.5,29.79,East,90,1.7,-999.0,64,-99.99,,,0.00,Acu-Link.com,2013-10-12 17:20:00,
2013-10-12 13:35:00,77.4,64.2,29.79,SSE,157,2.2,-999.0,64,-99.99,,,0.00,Acu-Link.com,2013-10-12 17:35:00,
2013-10-12 13:50:00,79.7,65.0,29.79,ESE,112,4.2,-999.0,61,-99.99,,,0.00,Acu-Link.com,2013-10-12 17:50:00,
2013-10-12 14:06:00,80.6,64.9,29.78,East,90,0.0,-999.0,59,-99.99,,,0.00,Acu-Link.com,2013-10-12 18:06:00,
2013-10-12 14:21:00,77.4,63.8,29.79,ESE,112,4.2,-999.0,63,-99.99,,,0.00,Acu-Link.com,2013-10-12 18:21:00,
2013-10-12 14:36:00,79.2,64.6,29.79,NE,45,6.3,-999.0,61,-99.99,,,0.00,Acu-Link.com,2013-10-12 18:36:00,
2013-10-12 14:51:00,79.0,63.4,29.78,SE,135,4.2,-999.0,59,-99.99,,,0.00,Acu-Link.com,2013-10-12 18:51:00,
2013-10-12 15:06:00,81.3,63.6,29.77,NNW,337,4.7,-999.0,55,-99.99,,,0.00,Acu-Link.com,2013-10-12 19:06:00,
2013-10-12 15:21:00,81.0,62.2,29.78,SE,135,2.7,-999.0,53,-99.99,,,0.00,Acu-Link.com,2013-10-12 19:21:00,
2013-10-12 15:36:00,81.3,62.0,29.78,East,90,2.7,-999.0,52,-99.99,,,0.00,Acu-Link.com,2013-10-12 19:36:00,
2013-10-12 15:51:00,82.2,61.7,29.78,WNW,292,2.7,-999.0,50,-99.99,,,0.00,Acu-Link.com,2013-10-12 19:51:00,
2013-10-12 16:06:00,81.0,61.1,29.78,NNW,337,4.2,-999.0,51,-99.99,,,0.00,Acu-Link.com,2013-10-12 20:06:00,
2013-10-12 16:22:00,79.5,61.9,29.78,WSW,247,1.7,-999.0,55,-99.99,,,0.00,Acu-Link.com,2013-10-12 20:22:00,
2013-10-12 16:37:00,77.5,62.0,29.78,NE,45,3.2,-999.0,59,-99.99,,,0.00,Acu-Link.com,2013-10-12 20:37:00,
2013-10-12 16:52:00,76.3,60.9,29.78,SSE,157,0.0,-999.0,59,-99.99,,,0.00,Acu-Link.com,2013-10-12 20:52:00,
2013-10-12 17:07:00,76.3,62.8,29.78,NW,315,2.2,-999.0,63,-99.99,,,0.00,Acu-Link.com,2013-10-12 21:07:00,
2013-10-12 17:22:00,76.5,61.6,29.79,SSE,157,0.0,-999.0,60,-99.99,,,0.00,Acu-Link.com,2013-10-12 21:22:00,
2013-10-12 17:37:00,75.4,61.9,29.79,ENE,67,2.2,-999.0,63,-99.99,,,0.00,Acu-Link.com,2013-10-12 21:37:00,
2013-10-12 17:52:00,73.8,61.3,29.79,East,90,2.7,-999.0,65,-99.99,,,0.00,Acu-Link.com,2013-10-12 21:52:00,
2013-10-12 18:07:00,72.7,63.1,29.78,East,90,3.7,-999.0,72,-99.99,,,0.00,Acu-Link.com,2013-10-12 22:07:00,
2013-10-12 18:22:00,71.8,63.4,29.78,ENE,67,4.2,-999.0,75,-99.99,,,0.00,Acu-Link.com,2013-10-12 22:22:00,
2013-10-12 18:37:00,70.9,63.3,29.78,East,90,3.2,-999.0,77,-99.99,,,0.00,Acu-Link.com,2013-10-12 22:37:00,
2013-10-12 18:53:00,68.9,62.5,29.79,NE,45,0.0,-999.0,80,-99.99,,,0.00,Acu-Link.com,2013-10-12 22:53:00,
2013-10-12 19:08:00,67.1,62.8,29.78,East,90,3.7,-999.0,86,-99.99,,,0.00,Acu-Link.com,2013-10-12 23:08:00,
2013-10-12 19:23:00,66.6,63.3,29.79,ENE,67,5.8,-999.0,89,-99.99,,,0.00,Acu-Link.com,2013-10-12 23:23:00,
2013-10-12 19:38:00,66.4,65.5,29.78,ENE,67,4.7,-999.0,97,-99.99,,,0.00,Acu-Link.com,2013-10-12 23:38:00,
2013-10-12 19:53:00,65.8,65.2,29.79,East,90,5.8,-999.0,98,-99.99,,,0.00,Acu-Link.com,2013-10-12 23:53:00,
2013-10-12 20:08:00,65.1,64.5,29.79,East,90,5.8,-999.0,98,-99.99,,,0.00,Acu-Link.com,2013-10-13 00:08:00,
2013-10-12 20:23:00,64.4,63.8,29.80,ENE,67,4.7,-999.0,98,-99.99,,,0.00,Acu-Link.com,2013-10-13 00:23:00,
2013-10-12 20:38:00,63.9,63.3,29.80,ENE,67,5.3,-999.0,98,-99.99,,,0.00,Acu-Link.com,2013-10-13 00:38:00,
2013-10-12 20:54:00,63.1,62.5,29.81,NE,45,5.3,-999.0,98,-99.99,,,0.00,Acu-Link.com,2013-10-13 00:54:00,
2013-10-12 21:09:00,62.2,61.6,29.82,ENE,67,4.2,-999.0,98,-99.99,,,0.00,Acu-Link.com,2013-10-13 01:09:00,
2013-10-12 21:24:00,61.9,61.3,29.82,ENE,67,4.7,-999.0,98,-99.99,,,0.00,Acu-Link.com,2013-10-13 01:24:00,
2013-10-12 21:39:00,61.3,60.7,29.83,NE,45,3.7,-999.0,98,-99.99,,,0.00,Acu-Link.com,2013-10-13 01:39:00,
2013-10-12 21:54:00,60.8,60.2,29.84,NNE,22,2.7,-999.0,98,-99.99,,,0.00,Acu-Link.com,2013-10-13 01:54:00,
2013-10-12 22:09:00,60.6,60.0,29.83,NE,45,2.7,-999.0,98,-99.99,,,0.00,Acu-Link.com,2013-10-13 02:09:00,
2013-10-12 22:24:00,60.3,59.7,29.85,NNW,337,2.7,-999.0,98,-99.99,,,0.00,Acu-Link.com,2013-10-13 02:24:00,
2013-10-12 22:39:00,59.9,59.3,29.84,East,90,2.7,-999.0,98,-99.99,,,0.00,Acu-Link.com,2013-10-13 02:39:00,
2013-10-12 22:54:00,59.7,59.1,29.85,ENE,67,2.7,-999.0,98,-99.99,,,0.00,Acu-Link.com,2013-10-13 02:54:00,
2013-10-12 23:10:00,59.5,58.9,29.85,NNE,22,2.2,-999.0,98,-99.99,,,0.00,Acu-Link.com,2013-10-13 03:10:00,
2013-10-12 23:25:00,59.2,58.6,29.85,NNE,22,3.2,-999.0,98,-99.99,,,0.00,Acu-Link.com,2013-10-13 03:25:00,
2013-10-12 23:40:00,58.3,57.7,29.85,WNW,292,2.2,-999.0,98,-99.99,,,0.00,Acu-Link.com,2013-10-13 03:40:00,
2013-10-12 23:55:00,57.9,57.3,29.86,SSE,157,1.1,-999.0,98,-99.99,,,0.00,Acu-Link.com,2013-10-13 03:55:00,